Irene — MCQW — position and weather

sailwx.info

Track history (hours):
 
Tides and Currents Weather Stations Pressure Air Temp Water Temp Dewpoint Dewpoint Depression Visibility Wind Speed Wind Dir Waves Ship Positions

Irene

Last reported at 2018-Apr-26 17:19 UTC. Time now 2018-Apr-27 08:48 UTC.
Position N 50°13' W 003°38'.

Length 34 m.

Type: Sailing vessel. MMSI: 235085663.

Date/timePositionNaut miles runAvg speedWind from/ knotsBaromVisibWave heightAir tempDewpointWater temp
2018-Apr-26 17:19N 50°13' W 003°38'21 4.9
2018-Apr-26 13:01N 50°19' W 004°09'0 4.8
2018-Apr-26 13:00N 50°19' W 004°09'1 2.4
2018-Apr-26 12:30N 50°20' W 004°11'1 1.0
2018-Apr-26 11:59N 50°20' W 004°12'0 0.0
2018-Apr-26 11:29N 50°20' W 004°12'0 0.0
2018-Apr-26 10:59N 50°20' W 004°12'0 0.0
2018-Apr-26 10:30N 50°20' W 004°12'0 0.0
2018-Apr-26 09:59N 50°20' W 004°12'0 0.0
2018-Apr-26 09:29N 50°20' W 004°12'0 0.0
2018-Apr-26 08:59N 50°20' W 004°12'0 0.0
2018-Apr-26 08:30N 50°20' W 004°12'0 0.0
2018-Apr-26 08:00N 50°20' W 004°12'0 0.0
2018-Apr-26 07:30N 50°20' W 004°12'0 0.0
2018-Apr-26 07:00N 50°20' W 004°12'0 0.0
2018-Apr-26 06:30N 50°20' W 004°12'0 0.0
2018-Apr-26 06:00N 50°20' W 004°12'0 0.0
2018-Apr-26 05:30N 50°20' W 004°12'0 0.0
2018-Apr-26 04:59N 50°20' W 004°12'0 0.0
2018-Apr-26 04:29N 50°20' W 004°12'0 0.0
2018-Apr-26 03:59N 50°20' W 004°12'0 0.0
2018-Apr-26 03:29N 50°20' W 004°12'0 0.0
2018-Apr-26 02:59N 50°20' W 004°12'0 0.0
2018-Apr-26 02:29N 50°20' W 004°12'0 0.0
2018-Apr-26 01:59N 50°20' W 004°12'0 0.0
2018-Apr-26 01:29N 50°20' W 004°12'0 0.0
2018-Apr-26 00:59N 50°20' W 004°12'0 0.0
2018-Apr-26 00:29N 50°20' W 004°12'0 0.0
2018-Apr-25 23:59N 50°20' W 004°12'0 0.0
2018-Apr-25 23:29N 50°20' W 004°12'0 0.0
2018-Apr-25 22:59N 50°20' W 004°12'0 0.0
2018-Apr-25 22:29N 50°20' W 004°12'0 0.0
2018-Apr-25 21:59N 50°20' W 004°12'0 0.0
2018-Apr-25 21:30N 50°20' W 004°12'0 0.0
2018-Apr-25 21:00N 50°20' W 004°12'0 0.0
2018-Apr-25 20:30N 50°20' W 004°12'0 0.0
2018-Apr-25 20:00N 50°20' W 004°12'0 0.0
2018-Apr-25 19:30N 50°20' W 004°12'0 0.0
2018-Apr-25 19:00N 50°20' W 004°12'0 0.0
2018-Apr-25 18:30N 50°20' W 004°12'0 0.0
2018-Apr-25 18:00N 50°20' W 004°12'0 0.0
2018-Apr-25 17:30N 50°20' W 004°12'0 0.0
2018-Apr-25 16:58N 50°20' W 004°12'1 2.2
2018-Apr-25 16:30N 50°20' W 004°10'2 3.5
2018-Apr-25 16:01N 50°21' W 004°08'0 0.3
2018-Apr-25 14:25N 50°22' W 004°08'1 0.8
2018-Apr-25 13:48N 50°22' W 004°07'0 0.0
2018-Apr-25 13:30N 50°22' W 004°07'0 0.0
2018-Apr-25 12:57N 50°22' W 004°07'0 0.0
2018-Apr-25 12:30N 50°22' W 004°07'0 0.0
2018-Apr-25 11:57N 50°22' W 004°07'0 0.0
2018-Apr-25 11:21N 50°22' W 004°07'0 0.0
2018-Apr-25 11:00N 50°22' W 004°07'0 0.0
2018-Apr-25 10:30N 50°22' W 004°07'0 0.0
2018-Apr-25 10:00N 50°22' W 004°07'0 0.0
2018-Apr-25 09:27N 50°22' W 004°07'0 0.0
2018-Apr-25 09:00N 50°22' W 004°07'0 0.0
2018-Apr-25 08:24N 50°22' W 004°07'0 0.0
2018-Apr-25 07:45N 50°22' W 004°07'0 0.0
2018-Apr-25 07:06N 50°22' W 004°07'0 0.0
2018-Apr-25 06:51N 50°22' W 004°07'0 0.0
2018-Apr-25 06:12N 50°22' W 004°07'0 0.0
2018-Apr-25 05:57N 50°22' W 004°07'0 0.0
2018-Apr-25 05:27N 50°22' W 004°07'0 0.0
2018-Apr-25 04:54N 50°22' W 004°07'0 0.0
2018-Apr-25 03:18N 50°22' W 004°07'0 0.0
2018-Apr-25 02:57N 50°22' W 004°07'0 0.0
2018-Apr-25 02:21N 50°22' W 004°07'0 0.0
2018-Apr-25 01:57N 50°22' W 004°07'0 0.0
2018-Apr-25 01:12N 50°22' W 004°07'0 0.0
2018-Apr-25 01:00N 50°22' W 004°07'0 0.0
2018-Apr-25 00:27N 50°22' W 004°07'0 0.0
2018-Apr-25 00:00N 50°22' W 004°07'0 0.0
2018-Apr-24 23:21N 50°22' W 004°07'0 0.0
2018-Apr-24 22:57N 50°22' W 004°07'0 0.0
2018-Apr-24 22:21N 50°22' W 004°07'0 0.0
2018-Apr-24 22:00N 50°22' W 004°07'0 0.0
2018-Apr-24 21:30N 50°22' W 004°07'0 0.0
2018-Apr-24 21:00N 50°22' W 004°07'0 0.0
2018-Apr-24 20:30N 50°22' W 004°07'0 0.0
2018-Apr-24 20:00N 50°22' W 004°07'0 0.0
2018-Apr-24 19:30N 50°22' W 004°07'0 0.0
2018-Apr-24 19:00N 50°22' W 004°07'0 0.0
2018-Apr-24 18:30N 50°22' W 004°07'0 0.0
2018-Apr-24 17:57N 50°22' W 004°07'0 0.0
2018-Apr-24 17:30N 50°22' W 004°07'0 0.0
2018-Apr-24 17:00N 50°22' W 004°07'0 0.0
2018-Apr-24 16:30N 50°22' W 004°07'0 0.0
2018-Apr-24 15:57N 50°22' W 004°07'0 0.0
2018-Apr-24 15:30N 50°22' W 004°07'0 0.0
2018-Apr-24 14:54N 50°22' W 004°07'0 0.0
2018-Apr-24 14:30N 50°22' W 004°07'0 0.0
2018-Apr-24 14:00N 50°22' W 004°07'0 0.0
2018-Apr-24 13:30N 50°22' W 004°07'0 0.0
2018-Apr-24 13:00N 50°22' W 004°07'0 0.0
2018-Apr-24 12:24N 50°22' W 004°07'0 0.0
2018-Apr-24 11:57N 50°22' W 004°07'0 0.0
2018-Apr-24 11:21N 50°22' W 004°07'0 0.0
2018-Apr-24 10:51N 50°22' W 004°07'0 0.0
2018-Apr-24 10:30N 50°22' W 004°07'0 0.0
2018-Apr-24 10:00N 50°22' W 004°07'0 0.0
2018-Apr-24 09:30N 50°22' W 004°07'0 0.0
2018-Apr-24 08:57N 50°22' W 004°07'0 0.0
2018-Apr-24 03:24N 50°22' W 004°07'0 0.0
2018-Apr-24 03:00N 50°22' W 004°07'0 0.0
2018-Apr-24 02:24N 50°22' W 004°07'0 0.0
2018-Apr-24 02:00N 50°22' W 004°07'0 0.0
2018-Apr-24 01:18N 50°22' W 004°07'0 0.0
2018-Apr-24 00:57N 50°22' W 004°07'0 0.0
2018-Apr-24 00:30N 50°22' W 004°07'0 0.0
2018-Apr-23 23:57N 50°22' W 004°07'0 0.0
2018-Apr-23 23:30N 50°22' W 004°07'0 0.0
2018-Apr-23 23:00N 50°22' W 004°07'0 0.0
2018-Apr-23 22:27N 50°22' W 004°07'0 0.0
2018-Apr-23 22:00N 50°22' W 004°07'  
Track history (hours):
 
Tides and Currents Weather Stations Pressure Air Temp Water Temp Dewpoint Dewpoint Depression Visibility Wind Speed Wind Dir Waves Ship Positions

Irene

Last reported at 2018-Apr-26 17:19 UTC. Time now 2018-Apr-27 08:48 UTC.
Position N 50°13' W 003°38'.

Length 34 m.

Type: Sailing vessel. MMSI: 235085663.

Date/timePositionNaut miles runAvg speedWind from/ knotsBaromVisibWave heightAir tempDewpointWater temp
2018-Apr-26 17:19N 50°13' W 003°38'21 4.9
2018-Apr-26 13:01N 50°19' W 004°09'0 4.8
2018-Apr-26 13:00N 50°19' W 004°09'1 2.4
2018-Apr-26 12:30N 50°20' W 004°11'1 1.0
2018-Apr-26 11:59N 50°20' W 004°12'0 0.0
2018-Apr-26 11:29N 50°20' W 004°12'0 0.0
2018-Apr-26 10:59N 50°20' W 004°12'0 0.0
2018-Apr-26 10:30N 50°20' W 004°12'0 0.0
2018-Apr-26 09:59N 50°20' W 004°12'0 0.0
2018-Apr-26 09:29N 50°20' W 004°12'0 0.0
2018-Apr-26 08:59N 50°20' W 004°12'0 0.0
2018-Apr-26 08:30N 50°20' W 004°12'0 0.0
2018-Apr-26 08:00N 50°20' W 004°12'0 0.0
2018-Apr-26 07:30N 50°20' W 004°12'0 0.0
2018-Apr-26 07:00N 50°20' W 004°12'0 0.0
2018-Apr-26 06:30N 50°20' W 004°12'0 0.0
2018-Apr-26 06:00N 50°20' W 004°12'0 0.0
2018-Apr-26 05:30N 50°20' W 004°12'0 0.0
2018-Apr-26 04:59N 50°20' W 004°12'0 0.0
2018-Apr-26 04:29N 50°20' W 004°12'0 0.0
2018-Apr-26 03:59N 50°20' W 004°12'0 0.0
2018-Apr-26 03:29N 50°20' W 004°12'0 0.0
2018-Apr-26 02:59N 50°20' W 004°12'0 0.0
2018-Apr-26 02:29N 50°20' W 004°12'0 0.0
2018-Apr-26 01:59N 50°20' W 004°12'0 0.0
2018-Apr-26 01:29N 50°20' W 004°12'0 0.0
2018-Apr-26 00:59N 50°20' W 004°12'0 0.0
2018-Apr-26 00:29N 50°20' W 004°12'0 0.0
2018-Apr-25 23:59N 50°20' W 004°12'0 0.0
2018-Apr-25 23:29N 50°20' W 004°12'0 0.0
2018-Apr-25 22:59N 50°20' W 004°12'0 0.0
2018-Apr-25 22:29N 50°20' W 004°12'0 0.0
2018-Apr-25 21:59N 50°20' W 004°12'0 0.0
2018-Apr-25 21:30N 50°20' W 004°12'0 0.0
2018-Apr-25 21:00N 50°20' W 004°12'0 0.0
2018-Apr-25 20:30N 50°20' W 004°12'0 0.0
2018-Apr-25 20:00N 50°20' W 004°12'0 0.0
2018-Apr-25 19:30N 50°20' W 004°12'0 0.0
2018-Apr-25 19:00N 50°20' W 004°12'0 0.0
2018-Apr-25 18:30N 50°20' W 004°12'0 0.0
2018-Apr-25 18:00N 50°20' W 004°12'0 0.0
2018-Apr-25 17:30N 50°20' W 004°12'0 0.0
2018-Apr-25 16:58N 50°20' W 004°12'1 2.2
2018-Apr-25 16:30N 50°20' W 004°10'2 3.5
2018-Apr-25 16:01N 50°21' W 004°08'0 0.3
2018-Apr-25 14:25N 50°22' W 004°08'1 0.8
2018-Apr-25 13:48N 50°22' W 004°07'0 0.0
2018-Apr-25 13:30N 50°22' W 004°07'0 0.0
2018-Apr-25 12:57N 50°22' W 004°07'0 0.0
2018-Apr-25 12:30N 50°22' W 004°07'0 0.0
2018-Apr-25 11:57N 50°22' W 004°07'0 0.0
2018-Apr-25 11:21N 50°22' W 004°07'0 0.0
2018-Apr-25 11:00N 50°22' W 004°07'0 0.0
2018-Apr-25 10:30N 50°22' W 004°07'0 0.0
2018-Apr-25 10:00N 50°22' W 004°07'0 0.0
2018-Apr-25 09:27N 50°22' W 004°07'0 0.0
2018-Apr-25 09:00N 50°22' W 004°07'0 0.0
2018-Apr-25 08:24N 50°22' W 004°07'0 0.0
2018-Apr-25 07:45N 50°22' W 004°07'0 0.0
2018-Apr-25 07:06N 50°22' W 004°07'0 0.0
2018-Apr-25 06:51N 50°22' W 004°07'0 0.0
2018-Apr-25 06:12N 50°22' W 004°07'0 0.0
2018-Apr-25 05:57N 50°22' W 004°07'0 0.0
2018-Apr-25 05:27N 50°22' W 004°07'0 0.0
2018-Apr-25 04:54N 50°22' W 004°07'0 0.0
2018-Apr-25 03:18N 50°22' W 004°07'0 0.0
2018-Apr-25 02:57N 50°22' W 004°07'0 0.0
2018-Apr-25 02:21N 50°22' W 004°07'0 0.0
2018-Apr-25 01:57N 50°22' W 004°07'0 0.0
2018-Apr-25 01:12N 50°22' W 004°07'0 0.0
2018-Apr-25 01:00N 50°22' W 004°07'0 0.0
2018-Apr-25 00:27N 50°22' W 004°07'0 0.0
2018-Apr-25 00:00N 50°22' W 004°07'0 0.0
2018-Apr-24 23:21N 50°22' W 004°07'0 0.0
2018-Apr-24 22:57N 50°22' W 004°07'0 0.0
2018-Apr-24 22:21N 50°22' W 004°07'0 0.0
2018-Apr-24 22:00N 50°22' W 004°07'0 0.0
2018-Apr-24 21:30N 50°22' W 004°07'0 0.0
2018-Apr-24 21:00N 50°22' W 004°07'0 0.0
2018-Apr-24 20:30N 50°22' W 004°07'0 0.0
2018-Apr-24 20:00N 50°22' W 004°07'0 0.0
2018-Apr-24 19:30N 50°22' W 004°07'0 0.0
2018-Apr-24 19:00N 50°22' W 004°07'0 0.0
2018-Apr-24 18:30N 50°22' W 004°07'0 0.0
2018-Apr-24 17:57N 50°22' W 004°07'0 0.0
2018-Apr-24 17:30N 50°22' W 004°07'0 0.0
2018-Apr-24 17:00N 50°22' W 004°07'0 0.0
2018-Apr-24 16:30N 50°22' W 004°07'0 0.0
2018-Apr-24 15:57N 50°22' W 004°07'0 0.0
2018-Apr-24 15:30N 50°22' W 004°07'0 0.0
2018-Apr-24 14:54N 50°22' W 004°07'0 0.0
2018-Apr-24 14:30N 50°22' W 004°07'0 0.0
2018-Apr-24 14:00N 50°22' W 004°07'0 0.0
2018-Apr-24 13:30N 50°22' W 004°07'0 0.0
2018-Apr-24 13:00N 50°22' W 004°07'0 0.0
2018-Apr-24 12:24N 50°22' W 004°07'0 0.0
2018-Apr-24 11:57N 50°22' W 004°07'0 0.0
2018-Apr-24 11:21N 50°22' W 004°07'0 0.0
2018-Apr-24 10:51N 50°22' W 004°07'0 0.0
2018-Apr-24 10:30N 50°22' W 004°07'0 0.0
2018-Apr-24 10:00N 50°22' W 004°07'0 0.0
2018-Apr-24 09:30N 50°22' W 004°07'0 0.0
2018-Apr-24 08:57N 50°22' W 004°07'0 0.0
2018-Apr-24 03:24N 50°22' W 004°07'0 0.0
2018-Apr-24 03:00N 50°22' W 004°07'0 0.0
2018-Apr-24 02:24N 50°22' W 004°07'0 0.0
2018-Apr-24 02:00N 50°22' W 004°07'0 0.0
2018-Apr-24 01:18N 50°22' W 004°07'0 0.0
2018-Apr-24 00:57N 50°22' W 004°07'0 0.0
2018-Apr-24 00:30N 50°22' W 004°07'0 0.0
2018-Apr-23 23:57N 50°22' W 004°07'0 0.0
2018-Apr-23 23:30N 50°22' W 004°07'0 0.0
2018-Apr-23 23:00N 50°22' W 004°07'0 0.0
2018-Apr-23 22:27N 50°22' W 004°07'0 0.0
2018-Apr-23 22:00N 50°22' W 004°07'  

Dump ship's entire track history